createdAt,value
2022-08-07T00:25:58.879Z,15.80
2022-08-07T00:31:12.314Z,15.80
2022-08-07T00:33:42.426Z,15.80
2022-08-07T00:36:11.530Z,15.70
2022-08-07T00:43:59.261Z,15.70
2022-08-07T00:58:22.395Z,15.60
2022-08-07T01:00:54.017Z,15.60
2022-08-07T01:06:11.402Z,15.50
2022-08-07T01:08:43.176Z,15.50
2022-08-07T01:21:49.890Z,15.40
2022-08-07T01:24:22.534Z,15.40
2022-08-07T01:26:54.181Z,15.60
2022-08-07T01:29:27.956Z,15.40
2022-08-07T01:34:36.791Z,15.40
2022-08-07T01:37:09.806Z,15.30
2022-08-07T01:42:38.186Z,14.80
2022-08-07T01:45:09.642Z,15.20
2022-08-07T01:50:28.954Z,15.00
2022-08-07T01:52:59.719Z,15.00
2022-08-07T01:55:38.964Z,14.50
2022-08-07T01:58:29.085Z,14.90
2022-08-07T02:01:10.320Z,14.90
2022-08-07T02:04:13.341Z,14.90
2022-08-07T02:06:44.372Z,14.80
2022-08-07T02:09:51.958Z,14.80
2022-08-07T02:12:18.166Z,14.40
2022-08-07T02:14:54.256Z,14.70
2022-08-07T02:17:27.591Z,14.70
2022-08-07T02:22:38.377Z,14.60
2022-08-07T02:25:17.146Z,12.50
2022-08-07T02:33:03.591Z,14.60
2022-08-07T02:36:28.417Z,14.50
2022-08-07T02:38:39.122Z,14.50
2022-08-07T02:46:25.837Z,14.40
2022-08-07T02:51:42.938Z,14.30
2022-08-07T02:56:44.701Z,14.30
2022-08-07T02:59:23.863Z,14.20
2022-08-07T03:01:56.495Z,14.10
2022-08-07T03:04:29.758Z,14.20
2022-08-07T03:14:52.944Z,14.10
2022-08-07T03:19:54.685Z,14.10
2022-08-07T03:22:29.533Z,14.10
2022-08-07T03:27:30.494Z,14.10
2022-08-07T03:32:59.184Z,14.00
2022-08-07T03:35:37.916Z,14.10
2022-08-07T03:38:13.838Z,14.10
2022-08-07T03:45:47.880Z,13.80
2022-08-07T03:50:55.652Z,14.00
2022-08-07T03:59:09.384Z,13.50
2022-08-07T04:04:04.764Z,13.90
2022-08-07T04:12:24.267Z,13.90
2022-08-07T04:14:38.848Z,13.90
2022-08-07T04:22:29.266Z,13.40
2022-08-07T04:25:01.585Z,14.00
2022-08-07T04:30:35.899Z,14.60
2022-08-07T04:33:02.560Z,14.10
2022-08-07T04:38:13.209Z,14.20
2022-08-07T04:40:51.640Z,14.30
2022-08-07T04:44:13.118Z,14.30
2022-08-07T04:47:03.982Z,14.30
2022-08-07T04:50:11.139Z,14.50
2022-08-07T04:53:03.092Z,14.40
2022-08-07T04:58:14.159Z,14.20
2022-08-07T05:02:04.941Z,14.50
2022-08-07T05:04:54.991Z,14.60
2022-08-07T05:07:44.136Z,14.60
2022-08-07T05:10:32.079Z,14.90
2022-08-07T05:14:54.447Z,15.00
2022-08-07T05:16:18.457Z,15.20
2022-08-07T05:18:57.491Z,15.30
2022-08-07T05:22:00.519Z,15.50
2022-08-07T05:24:19.351Z,15.60
2022-08-07T05:26:58.637Z,15.80
2022-08-07T05:29:39.017Z,15.90
2022-08-07T05:32:21.150Z,16.10
2022-08-07T05:34:50.704Z,16.30
2022-08-07T05:37:25.409Z,16.40
2022-08-07T05:45:14.500Z,16.90
2022-08-07T05:48:02.643Z,17.20
2022-08-07T05:50:34.193Z,17.30
2022-08-07T05:53:04.045Z,17.50
2022-08-07T05:56:01.872Z,17.70
2022-08-07T05:58:36.806Z,18.00
2022-08-07T06:01:09.221Z,18.10
2022-08-07T06:03:53.413Z,18.30
2022-08-07T06:11:34.815Z,19.00
2022-08-07T06:16:50.356Z,19.40
2022-08-07T06:40:52.892Z,20.60
2022-08-07T06:43:24.446Z,20.80
2022-08-07T06:51:07.994Z,21.30
2022-08-07T06:54:11.910Z,21.50
2022-08-07T06:56:49.633Z,21.60
2022-08-07T07:00:11.364Z,22.10
2022-08-07T07:02:48.745Z,21.80
2022-08-07T07:13:55.638Z,22.30
2022-08-07T07:16:45.088Z,22.60
2022-08-07T07:19:55.716Z,22.60
2022-08-07T07:22:35.783Z,22.70
2022-08-07T07:26:31.022Z,22.90
2022-08-07T07:28:41.981Z,23.10
2022-08-07T07:31:39.933Z,23.30
2022-08-07T07:34:20.072Z,23.40
2022-08-07T07:36:54.238Z,23.60
2022-08-07T07:39:25.471Z,23.70
2022-08-07T07:44:49.656Z,23.70
2022-08-07T07:50:35.100Z,23.90
2022-08-07T07:52:46.845Z,24.00
2022-08-07T07:55:19.780Z,24.00
2022-08-07T07:57:53.136Z,24.00
2022-08-07T08:03:16.831Z,24.20
2022-08-07T08:08:36.853Z,24.50
2022-08-07T08:11:16.326Z,24.50
2022-08-07T08:13:53.695Z,24.50
2022-08-07T08:16:35.282Z,24.60
2022-08-07T08:19:18.200Z,24.70
2022-08-07T08:33:20.586Z,25.20
2022-08-07T08:35:51.537Z,25.10
2022-08-07T08:38:30.004Z,25.10
2022-08-07T08:41:23.753Z,25.00
2022-08-07T08:44:29.382Z,24.90
2022-08-07T08:47:17.191Z,25.00
2022-08-07T08:50:09.720Z,24.40
2022-08-07T08:52:54.082Z,25.10
2022-08-07T08:55:54.868Z,25.10
2022-08-07T08:58:56.335Z,26.00
2022-08-07T09:01:40.256Z,25.40
2022-08-07T09:04:42.865Z,25.20
2022-08-07T09:07:46.149Z,25.00
2022-08-07T09:10:45.780Z,25.00
2022-08-07T09:13:37.928Z,24.30
2022-08-07T09:16:30.703Z,24.20
2022-08-07T09:19:52.041Z,25.40
2022-08-07T09:24:30.926Z,24.20
2022-08-07T09:25:44.094Z,25.30
2022-08-07T09:29:24.467Z,24.30
2022-08-07T09:34:26.335Z,24.80
2022-08-07T09:37:48.168Z,24.70
2022-08-07T09:40:59.695Z,24.70
2022-08-07T09:44:10.218Z,23.80
2022-08-07T09:47:51.181Z,24.50
2022-08-07T09:50:32.532Z,24.40
2022-08-07T09:53:08.886Z,23.90
2022-08-07T09:56:03.273Z,24.20
2022-08-07T09:59:37.074Z,24.10
2022-08-07T10:02:29.827Z,24.10
2022-08-07T10:05:59.532Z,23.70
2022-08-07T10:08:43.969Z,24.30
2022-08-07T10:12:02.213Z,23.60
2022-08-07T10:14:43.400Z,23.60
2022-08-07T10:18:08.524Z,23.60
2022-08-07T10:21:29.629Z,23.60
2022-08-07T10:24:39.997Z,22.60
2022-08-07T10:27:47.897Z,23.30
2022-08-07T10:30:28.792Z,23.30
2022-08-07T10:34:04.097Z,22.80
2022-08-07T10:36:36.373Z,23.10
2022-08-07T10:39:57.543Z,22.30
2022-08-07T10:43:08.542Z,22.90
2022-08-07T10:45:57.374Z,23.30
2022-08-07T10:48:48.596Z,22.70
2022-08-07T10:52:01.455Z,23.30
2022-08-07T10:57:34.790Z,23.50
2022-08-07T11:00:39.614Z,23.40
2022-08-07T11:05:48.924Z,23.20
2022-08-07T11:11:35.596Z,23.30
2022-08-07T11:14:57.271Z,22.20
2022-08-07T11:17:43.373Z,23.10
2022-08-07T11:20:25.901Z,22.80
2022-08-07T11:23:30.857Z,22.50
2022-08-07T11:28:55.284Z,23.30
2022-08-07T11:31:47.433Z,23.20
2022-08-07T11:34:54.858Z,23.20
2022-08-07T11:38:09.923Z,23.30
2022-08-07T11:40:59.880Z,23.30
2022-08-07T11:44:14.330Z,23.50
2022-08-07T11:46:51.285Z,23.50
2022-08-07T11:50:11.478Z,23.60
2022-08-07T11:52:58.644Z,24.10
2022-08-07T11:56:09.115Z,23.60
2022-08-07T12:00:10.576Z,23.50
2022-08-07T12:02:37.549Z,23.80
2022-08-07T12:05:49.595Z,23.50
2022-08-07T12:08:40.244Z,23.70
2022-08-07T12:12:08.779Z,24.70
2022-08-07T12:15:17.390Z,23.50
2022-08-07T12:18:29.832Z,22.90
2022-08-07T12:22:36.567Z,22.60
2022-08-07T12:24:37.600Z,23.20
2022-08-07T12:27:28.142Z,23.80
2022-08-07T12:30:09.986Z,23.50
2022-08-07T12:33:02.978Z,24.30
2022-08-07T12:35:57.716Z,23.40
2022-08-07T12:38:42.485Z,23.40
2022-08-07T12:41:12.806Z,23.60
2022-08-07T12:44:02.943Z,23.60
2022-08-07T12:49:56.699Z,23.50
2022-08-07T12:53:18.556Z,22.60
2022-08-07T12:56:35.762Z,23.70
2022-08-07T12:59:08.397Z,23.60
2022-08-07T13:02:33.158Z,23.60
2022-08-07T13:08:30.767Z,23.60
2022-08-07T13:11:26.065Z,23.70
2022-08-07T13:14:46.756Z,23.70
2022-08-07T13:20:17.791Z,23.80
2022-08-07T13:24:01.086Z,23.30
2022-08-07T13:29:12.896Z,24.00
2022-08-07T13:32:23.812Z,24.20
2022-08-07T13:35:21.479Z,23.80
2022-08-07T13:38:05.427Z,23.80
2022-08-07T13:40:59.080Z,23.30
2022-08-07T13:43:34.343Z,24.00
2022-08-07T13:46:11.801Z,24.00
2022-08-07T13:48:58.596Z,24.00
2022-08-07T13:52:19.083Z,24.00
2022-08-07T13:54:23.920Z,24.00
2022-08-07T13:56:59.889Z,24.00
2022-08-07T13:59:33.282Z,24.00
2022-08-07T14:02:13.188Z,23.90
2022-08-07T14:04:50.311Z,23.40
2022-08-07T14:07:25.775Z,23.80
2022-08-07T14:10:16.503Z,23.80
2022-08-07T14:12:55.751Z,23.60
2022-08-07T14:15:47.193Z,23.60
2022-08-07T14:18:49.901Z,23.80
2022-08-07T14:22:02.554Z,24.00
2022-08-07T14:24:37.509Z,24.10
2022-08-07T14:28:11.254Z,24.00
2022-08-07T14:30:12.289Z,23.50
2022-08-07T14:33:04.417Z,23.90
2022-08-07T14:35:45.349Z,23.90
2022-08-07T14:38:30.847Z,23.80
2022-08-07T14:41:12.469Z,23.80
2022-08-07T14:43:57.699Z,23.80
2022-08-07T14:46:37.142Z,23.80
2022-08-07T14:49:57.995Z,23.70
2022-08-07T14:52:10.480Z,23.80
2022-08-07T14:54:44.959Z,24.10
2022-08-07T14:57:19.757Z,23.80
2022-08-07T15:02:40.493Z,24.00
2022-08-07T15:08:00.025Z,24.00
2022-08-07T15:10:29.993Z,24.00
2022-08-07T15:13:25.432Z,23.50
2022-08-07T15:19:00.700Z,24.00
2022-08-07T15:21:58.561Z,23.90
2022-08-07T15:25:15.071Z,23.80
2022-08-07T15:27:29.085Z,23.80
2022-08-07T15:30:16.465Z,24.00
2022-08-07T15:32:50.713Z,24.00
2022-08-07T15:38:51.932Z,24.10
2022-08-07T15:42:44.051Z,24.10
2022-08-07T15:44:16.112Z,24.00
2022-08-07T15:46:52.336Z,24.00
2022-08-07T15:50:04.878Z,24.00
2022-08-07T15:52:30.341Z,24.00
2022-08-07T15:55:08.552Z,24.10
2022-08-07T16:00:31.296Z,23.20
2022-08-07T16:03:20.456Z,24.10
2022-08-07T16:05:51.904Z,24.20
2022-08-07T16:08:33.521Z,23.60
2022-08-07T16:11:53.769Z,23.50
2022-08-07T16:14:59.424Z,24.00
2022-08-07T16:18:02.313Z,24.10
2022-08-07T16:22:03.242Z,24.50
2022-08-07T16:24:35.089Z,23.80
2022-08-07T16:27:39.763Z,23.70
2022-08-07T16:30:31.115Z,23.70
2022-08-07T16:36:08.024Z,23.60
2022-08-07T16:39:40.246Z,23.00
2022-08-07T16:43:07.391Z,23.30
2022-08-07T16:46:33.694Z,23.80
2022-08-07T16:50:27.098Z,23.90
2022-08-07T16:52:57.582Z,24.70
2022-08-07T16:55:47.503Z,23.50
2022-08-07T17:02:13.012Z,23.70
2022-08-07T17:06:19.247Z,23.70
2022-08-07T17:09:09.070Z,23.40
2022-08-07T17:12:04.349Z,23.90
2022-08-07T17:14:59.087Z,23.90
2022-08-07T17:17:46.341Z,24.10
2022-08-07T17:20:41.881Z,24.20
2022-08-07T17:23:32.377Z,24.40
2022-08-07T17:26:30.742Z,23.30
2022-08-07T17:30:15.416Z,23.90
2022-08-07T17:34:09.529Z,23.60
2022-08-07T17:36:20.070Z,23.70
2022-08-07T17:42:02.452Z,23.60
2022-08-07T17:44:56.170Z,22.80
2022-08-07T17:50:54.393Z,23.40
2022-08-07T17:53:59.676Z,23.20
2022-08-07T17:56:30.677Z,23.30
2022-08-07T17:59:09.104Z,23.20
2022-08-07T18:02:07.685Z,23.10
2022-08-07T18:05:21.556Z,23.20
2022-08-07T18:09:01.439Z,23.00
2022-08-07T18:12:17.653Z,23.00
2022-08-07T18:14:46.682Z,22.90
2022-08-07T18:18:44.993Z,22.80
2022-08-07T18:21:07.642Z,22.80
2022-08-07T18:23:42.100Z,22.80
2022-08-07T18:26:16.292Z,22.80
2022-08-07T18:29:04.485Z,22.70
2022-08-07T18:32:01.183Z,23.00
2022-08-07T18:35:00.709Z,22.60
2022-08-07T18:38:57.225Z,22.50
2022-08-07T18:41:45.844Z,22.40
2022-08-07T18:48:01.626Z,23.30
2022-08-07T18:50:48.407Z,22.30
2022-08-07T18:53:56.618Z,22.20
2022-08-07T18:56:38.934Z,22.20
2022-08-07T18:59:46.765Z,21.80
2022-08-07T19:03:12.359Z,22.10
2022-08-07T19:06:05.113Z,21.90
2022-08-07T19:08:58.615Z,21.20
2022-08-07T19:12:05.054Z,21.80
2022-08-07T19:16:02.184Z,21.80
2022-08-07T19:18:35.040Z,21.70
2022-08-07T19:21:56.022Z,21.50
2022-08-07T19:24:48.818Z,21.40
2022-08-07T19:28:58.666Z,21.60
2022-08-07T19:30:56.821Z,21.20
2022-08-07T19:33:12.917Z,21.50
2022-08-07T19:38:17.547Z,20.80
2022-08-07T19:40:50.176Z,21.80
2022-08-07T19:43:48.698Z,19.20
2022-08-07T19:46:26.322Z,21.30
2022-08-07T19:49:07.279Z,21.40
2022-08-07T19:51:52.184Z,21.20
2022-08-07T19:58:01.222Z,21.20
2022-08-07T20:00:11.134Z,20.90
2022-08-07T20:03:05.429Z,21.10
2022-08-07T20:06:03.931Z,21.00
2022-08-07T20:08:39.546Z,21.00
2022-08-07T20:11:34.241Z,21.00
2022-08-07T20:16:54.379Z,20.90
2022-08-07T20:19:28.891Z,20.90
2022-08-07T20:22:28.959Z,20.80
2022-08-07T20:25:12.962Z,20.80
2022-08-07T20:27:57.932Z,20.80
2022-08-07T20:30:36.250Z,20.40
2022-08-07T20:33:36.181Z,20.50
2022-08-07T20:36:03.585Z,20.70
2022-08-07T20:41:05.572Z,20.60
2022-08-07T20:43:38.566Z,20.60
2022-08-07T20:50:01.088Z,20.40
2022-08-07T20:54:29.972Z,20.40
2022-08-07T20:57:05.955Z,20.40
2022-08-07T21:00:07.011Z,20.40
2022-08-07T21:02:54.386Z,20.40
2022-08-07T21:05:50.764Z,20.30
2022-08-07T21:08:36.988Z,20.30
2022-08-07T21:11:14.765Z,20.20
2022-08-07T21:14:16.944Z,20.20
2022-08-07T21:17:06.771Z,20.20
2022-08-07T21:19:51.260Z,20.00
2022-08-07T21:25:12.270Z,20.20
2022-08-07T21:28:09.216Z,20.80
2022-08-07T21:30:50.705Z,20.70
2022-08-07T21:33:22.635Z,20.10
2022-08-07T21:36:49.935Z,20.10
2022-08-07T21:40:01.226Z,20.80
2022-08-07T21:42:57.972Z,19.60
2022-08-07T21:46:07.677Z,20.00
2022-08-07T21:48:56.471Z,20.00
2022-08-07T21:54:35.919Z,19.90
2022-08-07T21:57:39.521Z,20.20
2022-08-07T22:00:22.713Z,19.90
2022-08-07T22:03:17.220Z,20.20
2022-08-07T22:06:30.821Z,19.80
2022-08-07T22:09:13.499Z,19.70
2022-08-07T22:11:53.040Z,19.70
2022-08-07T22:16:45.175Z,19.70
2022-08-07T22:18:00.930Z,19.20
2022-08-07T22:20:54.069Z,19.70
2022-08-07T22:23:45.213Z,19.60
2022-08-07T22:29:14.006Z,19.60
2022-08-07T22:32:07.384Z,19.50
2022-08-07T22:34:53.061Z,19.10
2022-08-07T22:38:01.930Z,18.90
2022-08-07T22:41:07.622Z,19.80
2022-08-07T22:44:03.561Z,19.40
2022-08-07T22:47:09.437Z,18.90
2022-08-07T22:52:50.606Z,19.20
2022-08-07T22:55:49.676Z,19.60
2022-08-07T22:58:45.328Z,19.30
2022-08-07T23:04:58.516Z,18.60
2022-08-07T23:08:30.635Z,19.30
2022-08-07T23:11:59.183Z,20.10
2022-08-07T23:14:48.794Z,19.30
2022-08-07T23:18:00.901Z,19.00
2022-08-07T23:21:00.429Z,19.50
2022-08-07T23:24:06.006Z,19.10
2022-08-07T23:27:01.383Z,19.10
2022-08-07T23:30:39.407Z,18.90
2022-08-07T23:34:36.659Z,18.90
2022-08-07T23:36:28.852Z,18.80
2022-08-07T23:39:16.807Z,19.10
2022-08-07T23:42:15.662Z,18.90
2022-08-07T23:45:50.033Z,19.20
2022-08-07T23:48:47.241Z,19.20
2022-08-07T23:53:01.447Z,18.80
2022-08-07T23:57:20.480Z,18.70
